sensor_id;sensor_type;location;lat;lon;timestamp;temperature;humidity
32293;DHT22;43233;48.608;8.838;2023-02-12T00:01:37;5.00;68.40
32293;DHT22;43233;48.608;8.838;2023-02-12T00:04:03;5.00;68.20
32293;DHT22;43233;48.608;8.838;2023-02-12T00:06:29;5.00;68.20
32293;DHT22;43233;48.608;8.838;2023-02-12T00:08:55;5.10;68.00
32293;DHT22;43233;48.608;8.838;2023-02-12T00:11:23;5.10;67.70
32293;DHT22;43233;48.608;8.838;2023-02-12T00:13:50;5.00;67.20
32293;DHT22;43233;48.608;8.838;2023-02-12T00:16:18;4.90;67.30
32293;DHT22;43233;48.608;8.838;2023-02-12T00:18:45;4.90;67.50
32293;DHT22;43233;48.608;8.838;2023-02-12T00:21:11;4.80;67.20
32293;DHT22;43233;48.608;8.838;2023-02-12T00:23:39;4.80;67.60
32293;DHT22;43233;48.608;8.838;2023-02-12T00:26:11;4.70;68.00
32293;DHT22;43233;48.608;8.838;2023-02-12T00:28:37;4.70;68.20
32293;DHT22;43233;48.608;8.838;2023-02-12T00:31:11;4.60;68.40
32293;DHT22;43233;48.608;8.838;2023-02-12T00:33:37;4.60;68.70
32293;DHT22;43233;48.608;8.838;2023-02-12T00:36:03;4.60;68.70
32293;DHT22;43233;48.608;8.838;2023-02-12T00:38:29;4.60;68.90
32293;DHT22;43233;48.608;8.838;2023-02-12T00:40:55;4.70;68.60
32293;DHT22;43233;48.608;8.838;2023-02-12T00:43:21;4.70;68.50
32293;DHT22;43233;48.608;8.838;2023-02-12T00:45:47;4.70;68.50
32293;DHT22;43233;48.608;8.838;2023-02-12T00:48:13;4.70;68.50
32293;DHT22;43233;48.608;8.838;2023-02-12T00:50:39;4.60;68.60
32293;DHT22;43233;48.608;8.838;2023-02-12T00:53:06;4.60;69.50
32293;DHT22;43233;48.608;8.838;2023-02-12T00:55:32;4.60;69.00
32293;DHT22;43233;48.608;8.838;2023-02-12T00:57:58;4.60;69.20
32293;DHT22;43233;48.608;8.838;2023-02-12T01:00:24;4.60;69.60
32293;DHT22;43233;48.608;8.838;2023-02-12T01:02:50;4.50;69.90
32293;DHT22;43233;48.608;8.838;2023-02-12T01:05:15;4.50;71.00
32293;DHT22;43233;48.608;8.838;2023-02-12T01:07:41;4.50;70.10
32293;DHT22;43233;48.608;8.838;2023-02-12T01:10:08;4.60;70.10
32293;DHT22;43233;48.608;8.838;2023-02-12T01:12:34;4.50;69.50
32293;DHT22;43233;48.608;8.838;2023-02-12T01:14:59;4.50;69.90
32293;DHT22;43233;48.608;8.838;2023-02-12T01:17:25;4.40;70.10
32293;DHT22;43233;48.608;8.838;2023-02-12T01:19:56;4.40;70.50
32293;DHT22;43233;48.608;8.838;2023-02-12T01:22:21;4.30;71.70
32293;DHT22;43233;48.608;8.838;2023-02-12T01:24:47;4.20;72.90
32293;DHT22;43233;48.608;8.838;2023-02-12T01:27:12;4.20;72.50
32293;DHT22;43233;48.608;8.838;2023-02-12T01:29:38;4.30;72.10
32293;DHT22;43233;48.608;8.838;2023-02-12T01:32:04;4.30;72.60
32293;DHT22;43233;48.608;8.838;2023-02-12T01:34:30;4.10;73.90
32293;DHT22;43233;48.608;8.838;2023-02-12T01:36:55;4.00;74.90
32293;DHT22;43233;48.608;8.838;2023-02-12T01:39:21;4.00;75.50
32293;DHT22;43233;48.608;8.838;2023-02-12T01:41:47;4.00;76.50
32293;DHT22;43233;48.608;8.838;2023-02-12T01:44:18;4.00;76.70
32293;DHT22;43233;48.608;8.838;2023-02-12T01:46:47;4.00;77.40
32293;DHT22;43233;48.608;8.838;2023-02-12T01:49:37;3.90;79.60
32293;DHT22;43233;48.608;8.838;2023-02-12T01:52:19;3.90;79.60
32293;DHT22;43233;48.608;8.838;2023-02-12T01:54:49;4.00;79.80
32293;DHT22;43233;48.608;8.838;2023-02-12T01:57:15;4.10;80.60
32293;DHT22;43233;48.608;8.838;2023-02-12T01:59:44;4.00;82.10
32293;DHT22;43233;48.608;8.838;2023-02-12T02:02:11;4.00;81.80
32293;DHT22;43233;48.608;8.838;2023-02-12T02:04:45;4.10;81.10
32293;DHT22;43233;48.608;8.838;2023-02-12T02:07:11;4.20;80.50
32293;DHT22;43233;48.608;8.838;2023-02-12T02:09:38;4.20;79.80
32293;DHT22;43233;48.608;8.838;2023-02-12T02:12:05;4.30;79.50
32293;DHT22;43233;48.608;8.838;2023-02-12T02:14:52;4.30;78.80
32293;DHT22;43233;48.608;8.838;2023-02-12T02:22:49;4.40;78.20
32293;DHT22;43233;48.608;8.838;2023-02-12T02:28:29;4.40;78.40
32293;DHT22;43233;48.608;8.838;2023-02-12T02:30:58;4.50;77.60
32293;DHT22;43233;48.608;8.838;2023-02-12T02:33:56;4.50;77.40
32293;DHT22;43233;48.608;8.838;2023-02-12T02:36:37;4.50;77.30
32293;DHT22;43233;48.608;8.838;2023-02-12T02:41:52;4.60;77.20
32293;DHT22;43233;48.608;8.838;2023-02-12T02:44:25;4.50;77.00
32293;DHT22;43233;48.608;8.838;2023-02-12T02:46:53;4.50;76.80
32293;DHT22;43233;48.608;8.838;2023-02-12T02:49:28;4.60;76.70
32293;DHT22;43233;48.608;8.838;2023-02-12T02:52:02;4.60;76.80
32293;DHT22;43233;48.608;8.838;2023-02-12T02:54:33;4.50;76.60
32293;DHT22;43233;48.608;8.838;2023-02-12T02:57:11;4.60;76.80
32293;DHT22;43233;48.608;8.838;2023-02-12T02:59:43;4.60;76.80
32293;DHT22;43233;48.608;8.838;2023-02-12T03:02:32;4.60;76.80
32293;DHT22;43233;48.608;8.838;2023-02-12T03:05:09;4.60;76.90
32293;DHT22;43233;48.608;8.838;2023-02-12T03:07:45;4.60;77.00
32293;DHT22;43233;48.608;8.838;2023-02-12T03:10:43;4.50;77.00
32293;DHT22;43233;48.608;8.838;2023-02-12T03:13:20;4.60;76.80
32293;DHT22;43233;48.608;8.838;2023-02-12T03:15:59;4.60;76.40
32293;DHT22;43233;48.608;8.838;2023-02-12T03:18:31;4.60;76.40
32293;DHT22;43233;48.608;8.838;2023-02-12T03:21:10;4.50;75.90
32293;DHT22;43233;48.608;8.838;2023-02-12T03:23:43;4.50;75.90
32293;DHT22;43233;48.608;8.838;2023-02-12T03:26:16;4.40;75.80
32293;DHT22;43233;48.608;8.838;2023-02-12T03:28:45;4.40;75.90
32293;DHT22;43233;48.608;8.838;2023-02-12T03:34:10;4.40;75.70
32293;DHT22;43233;48.608;8.838;2023-02-12T03:36:47;4.30;75.80
32293;DHT22;43233;48.608;8.838;2023-02-12T03:41:51;4.40;75.70
32293;DHT22;43233;48.608;8.838;2023-02-12T03:49:58;4.40;75.00
32293;DHT22;43233;48.608;8.838;2023-02-12T03:52:25;4.30;74.70
32293;DHT22;43233;48.608;8.838;2023-02-12T03:54:51;4.20;74.20
32293;DHT22;43233;48.608;8.838;2023-02-12T03:57:23;4.20;74.10
32293;DHT22;43233;48.608;8.838;2023-02-12T03:59:55;4.10;74.60
32293;DHT22;43233;48.608;8.838;2023-02-12T04:02:21;4.20;74.20
32293;DHT22;43233;48.608;8.838;2023-02-12T04:04:46;4.10;74.60
32293;DHT22;43233;48.608;8.838;2023-02-12T04:07:13;4.00;74.80
32293;DHT22;43233;48.608;8.838;2023-02-12T04:09:39;4.00;75.30
32293;DHT22;43233;48.608;8.838;2023-02-12T04:17:30;3.80;77.20
32293;DHT22;43233;48.608;8.838;2023-02-12T04:31:00;3.80;80.00
32293;DHT22;43233;48.608;8.838;2023-02-12T04:33:33;3.80;80.80
32293;DHT22;43233;48.608;8.838;2023-02-12T04:36:11;3.80;80.50
32293;DHT22;43233;48.608;8.838;2023-02-12T04:38:43;3.90;80.20
32293;DHT22;43233;48.608;8.838;2023-02-12T04:41:12;3.90;79.80
32293;DHT22;43233;48.608;8.838;2023-02-12T04:43:37;4.00;79.70
32293;DHT22;43233;48.608;8.838;2023-02-12T04:46:05;4.00;79.70
32293;DHT22;43233;48.608;8.838;2023-02-12T04:48:31;4.00;79.60
32293;DHT22;43233;48.608;8.838;2023-02-12T04:50:56;4.00;79.80
32293;DHT22;43233;48.608;8.838;2023-02-12T04:53:22;4.00;80.10
32293;DHT22;43233;48.608;8.838;2023-02-12T04:55:48;4.00;80.40
32293;DHT22;43233;48.608;8.838;2023-02-12T04:58:15;4.00;80.50
32293;DHT22;43233;48.608;8.838;2023-02-12T05:00:41;4.00;80.80
32293;DHT22;43233;48.608;8.838;2023-02-12T05:03:06;4.00;80.90
32293;DHT22;43233;48.608;8.838;2023-02-12T05:05:32;4.00;81.20
32293;DHT22;43233;48.608;8.838;2023-02-12T05:07:58;4.00;81.50
32293;DHT22;43233;48.608;8.838;2023-02-12T05:10:23;4.00;81.80
32293;DHT22;43233;48.608;8.838;2023-02-12T05:12:52;4.00;82.10
32293;DHT22;43233;48.608;8.838;2023-02-12T05:15:19;4.00;82.40
32293;DHT22;43233;48.608;8.838;2023-02-12T05:17:45;4.00;82.70
32293;DHT22;43233;48.608;8.838;2023-02-12T05:20:11;4.00;82.90
32293;DHT22;43233;48.608;8.838;2023-02-12T05:22:37;4.00;83.20
32293;DHT22;43233;48.608;8.838;2023-02-12T05:25:03;4.00;83.50
32293;DHT22;43233;48.608;8.838;2023-02-12T05:27:29;4.00;84.00
32293;DHT22;43233;48.608;8.838;2023-02-12T05:29:54;4.00;83.70
32293;DHT22;43233;48.608;8.838;2023-02-12T05:32:21;4.00;83.60
32293;DHT22;43233;48.608;8.838;2023-02-12T05:34:47;4.00;84.10
32293;DHT22;43233;48.608;8.838;2023-02-12T05:37:13;4.00;84.70
32293;DHT22;43233;48.608;8.838;2023-02-12T05:39:38;4.00;84.70
32293;DHT22;43233;48.608;8.838;2023-02-12T05:42:04;4.00;84.80
32293;DHT22;43233;48.608;8.838;2023-02-12T05:44:30;4.00;84.90
32293;DHT22;43233;48.608;8.838;2023-02-12T05:46:55;4.00;85.00
32293;DHT22;43233;48.608;8.838;2023-02-12T05:49:21;4.00;85.00
32293;DHT22;43233;48.608;8.838;2023-02-12T05:51:46;4.10;85.20
32293;DHT22;43233;48.608;8.838;2023-02-12T05:54:12;4.10;85.10
32293;DHT22;43233;48.608;8.838;2023-02-12T05:56:42;4.10;84.90
32293;DHT22;43233;48.608;8.838;2023-02-12T05:59:14;4.10;84.80
32293;DHT22;43233;48.608;8.838;2023-02-12T06:01:42;4.10;84.80
32293;DHT22;43233;48.608;8.838;2023-02-12T06:04:15;4.00;85.80
32293;DHT22;43233;48.608;8.838;2023-02-12T06:06:41;4.00;85.70
32293;DHT22;43233;48.608;8.838;2023-02-12T06:09:08;4.00;85.70
32293;DHT22;43233;48.608;8.838;2023-02-12T06:11:34;4.00;85.10
32293;DHT22;43233;48.608;8.838;2023-02-12T06:14:08;4.00;84.90
32293;DHT22;43233;48.608;8.838;2023-02-12T06:16:34;3.90;84.40
32293;DHT22;43233;48.608;8.838;2023-02-12T06:19:02;3.90;84.70
32293;DHT22;43233;48.608;8.838;2023-02-12T06:21:28;4.00;84.90
32293;DHT22;43233;48.608;8.838;2023-02-12T06:23:54;3.90;85.00
32293;DHT22;43233;48.608;8.838;2023-02-12T06:26:20;3.90;85.00
32293;DHT22;43233;48.608;8.838;2023-02-12T06:28:46;3.90;85.90
32293;DHT22;43233;48.608;8.838;2023-02-12T06:33:47;3.80;88.50
32293;DHT22;43233;48.608;8.838;2023-02-12T06:36:12;3.80;87.30
32293;DHT22;43233;48.608;8.838;2023-02-12T06:38:38;3.90;87.10
32293;DHT22;43233;48.608;8.838;2023-02-12T06:41:03;3.90;87.10
32293;DHT22;43233;48.608;8.838;2023-02-12T06:43:29;3.90;87.40
32293;DHT22;43233;48.608;8.838;2023-02-12T06:45:55;3.90;87.60
32293;DHT22;43233;48.608;8.838;2023-02-12T06:48:21;3.90;87.40
32293;DHT22;43233;48.608;8.838;2023-02-12T06:50:46;4.00;87.20
32293;DHT22;43233;48.608;8.838;2023-02-12T06:53:12;4.00;87.00
32293;DHT22;43233;48.608;8.838;2023-02-12T06:55:38;4.00;86.80
32293;DHT22;43233;48.608;8.838;2023-02-12T06:58:03;4.00;86.60
32293;DHT22;43233;48.608;8.838;2023-02-12T07:00:29;4.00;87.40
32293;DHT22;43233;48.608;8.838;2023-02-12T07:02:55;4.00;86.70
32293;DHT22;43233;48.608;8.838;2023-02-12T07:05:22;4.00;87.70
32293;DHT22;43233;48.608;8.838;2023-02-12T07:07:48;4.00;88.00
32293;DHT22;43233;48.608;8.838;2023-02-12T07:10:14;4.00;88.90
32293;DHT22;43233;48.608;8.838;2023-02-12T07:12:39;4.00;88.60
32293;DHT22;43233;48.608;8.838;2023-02-12T07:15:05;4.00;88.50
32293;DHT22;43233;48.608;8.838;2023-02-12T07:17:31;4.10;88.60
32293;DHT22;43233;48.608;8.838;2023-02-12T07:19:56;4.10;88.50
32293;DHT22;43233;48.608;8.838;2023-02-12T07:22:22;4.10;88.40
32293;DHT22;43233;48.608;8.838;2023-02-12T07:24:48;4.10;88.30
32293;DHT22;43233;48.608;8.838;2023-02-12T07:27:14;4.10;88.90
32293;DHT22;43233;48.608;8.838;2023-02-12T07:29:39;4.10;89.10
32293;DHT22;43233;48.608;8.838;2023-02-12T07:32:05;4.20;89.10
32293;DHT22;43233;48.608;8.838;2023-02-12T07:34:31;4.20;89.60
32293;DHT22;43233;48.608;8.838;2023-02-12T07:36:57;4.30;90.30
32293;DHT22;43233;48.608;8.838;2023-02-12T07:39:23;4.30;90.30
32293;DHT22;43233;48.608;8.838;2023-02-12T07:41:48;4.40;90.10
32293;DHT22;43233;48.608;8.838;2023-02-12T07:44:14;4.50;89.80
32293;DHT22;43233;48.608;8.838;2023-02-12T07:46:45;4.60;89.30
32293;DHT22;43233;48.608;8.838;2023-02-12T07:49:19;4.80;89.00
32293;DHT22;43233;48.608;8.838;2023-02-12T07:51:45;4.80;88.20
32293;DHT22;43233;48.608;8.838;2023-02-12T07:54:11;4.90;87.10
32293;DHT22;43233;48.608;8.838;2023-02-12T07:56:38;5.00;86.70
32293;DHT22;43233;48.608;8.838;2023-02-12T07:59:10;5.10;87.20
32293;DHT22;43233;48.608;8.838;2023-02-12T08:01:41;5.20;86.80
32293;DHT22;43233;48.608;8.838;2023-02-12T08:04:12;5.30;86.40
32293;DHT22;43233;48.608;8.838;2023-02-12T08:06:44;5.40;85.50
32293;DHT22;43233;48.608;8.838;2023-02-12T08:09:16;5.40;84.80
32293;DHT22;43233;48.608;8.838;2023-02-12T08:11:42;5.50;84.00
32293;DHT22;43233;48.608;8.838;2023-02-12T08:14:11;5.60;83.30
32293;DHT22;43233;48.608;8.838;2023-02-12T08:16:38;5.60;82.90
32293;DHT22;43233;48.608;8.838;2023-02-12T08:19:05;5.70;82.70
32293;DHT22;43233;48.608;8.838;2023-02-12T08:21:31;5.70;82.30
32293;DHT22;43233;48.608;8.838;2023-02-12T08:23:58;5.70;82.10
32293;DHT22;43233;48.608;8.838;2023-02-12T08:26:28;5.70;81.60
32293;DHT22;43233;48.608;8.838;2023-02-12T08:31:23;5.70;81.70
32293;DHT22;43233;48.608;8.838;2023-02-12T08:33:50;5.80;81.80
32293;DHT22;43233;48.608;8.838;2023-02-12T08:36:19;5.80;81.60
32293;DHT22;43233;48.608;8.838;2023-02-12T08:38:46;5.80;81.40
32293;DHT22;43233;48.608;8.838;2023-02-12T08:41:17;5.80;81.20
32293;DHT22;43233;48.608;8.838;2023-02-12T08:43:44;5.90;81.20
32293;DHT22;43233;48.608;8.838;2023-02-12T08:46:12;5.90;80.80
32293;DHT22;43233;48.608;8.838;2023-02-12T08:48:39;5.90;80.70
32293;DHT22;43233;48.608;8.838;2023-02-12T08:51:17;5.90;81.00
32293;DHT22;43233;48.608;8.838;2023-02-12T08:53:45;6.00;80.40
32293;DHT22;43233;48.608;8.838;2023-02-12T08:56:13;6.00;80.40
32293;DHT22;43233;48.608;8.838;2023-02-12T08:58:39;6.10;80.10
32293;DHT22;43233;48.608;8.838;2023-02-12T09:01:09;6.10;79.60
32293;DHT22;43233;48.608;8.838;2023-02-12T09:03:34;6.10;79.70
32293;DHT22;43233;48.608;8.838;2023-02-12T09:06:05;6.10;79.30
32293;DHT22;43233;48.608;8.838;2023-02-12T09:08:31;6.10;79.40
32293;DHT22;43233;48.608;8.838;2023-02-12T09:10:57;6.10;79.00
32293;DHT22;43233;48.608;8.838;2023-02-12T09:13:22;6.10;78.50
32293;DHT22;43233;48.608;8.838;2023-02-12T09:15:48;6.10;78.70
32293;DHT22;43233;48.608;8.838;2023-02-12T09:18:14;6.10;78.20
32293;DHT22;43233;48.608;8.838;2023-02-12T09:20:41;6.20;77.30
32293;DHT22;43233;48.608;8.838;2023-02-12T09:23:10;6.10;77.10
32293;DHT22;43233;48.608;8.838;2023-02-12T09:25:39;6.20;76.60
32293;DHT22;43233;48.608;8.838;2023-02-12T09:28:05;6.20;76.80
32293;DHT22;43233;48.608;8.838;2023-02-12T09:30:31;6.20;76.80
32293;DHT22;43233;48.608;8.838;2023-02-12T09:32:56;6.30;77.70
32293;DHT22;43233;48.608;8.838;2023-02-12T09:35:23;6.30;76.90
32293;DHT22;43233;48.608;8.838;2023-02-12T09:37:49;6.40;76.70
32293;DHT22;43233;48.608;8.838;2023-02-12T09:40:26;6.30;76.60
32293;DHT22;43233;48.608;8.838;2023-02-12T09:46:01;6.30;76.40
32293;DHT22;43233;48.608;8.838;2023-02-12T09:51:15;6.30;75.70
32293;DHT22;43233;48.608;8.838;2023-02-12T09:53:45;6.40;75.50
32293;DHT22;43233;48.608;8.838;2023-02-12T09:56:13;6.40;75.20
32293;DHT22;43233;48.608;8.838;2023-02-12T09:58:55;6.40;75.00
32293;DHT22;43233;48.608;8.838;2023-02-12T10:01:21;6.40;75.00
32293;DHT22;43233;48.608;8.838;2023-02-12T10:03:49;6.40;74.80
32293;DHT22;43233;48.608;8.838;2023-02-12T10:06:28;6.40;75.00
32293;DHT22;43233;48.608;8.838;2023-02-12T10:09:21;6.40;74.90
32293;DHT22;43233;48.608;8.838;2023-02-12T10:22:42;6.50;73.70
32293;DHT22;43233;48.608;8.838;2023-02-12T10:26:01;6.50;73.90
32293;DHT22;43233;48.608;8.838;2023-02-12T10:33:47;6.60;72.80
32293;DHT22;43233;48.608;8.838;2023-02-12T10:36:38;6.60;73.10
32293;DHT22;43233;48.608;8.838;2023-02-12T10:44:11;6.70;72.90
32293;DHT22;43233;48.608;8.838;2023-02-12T10:46:37;6.70;72.50
32293;DHT22;43233;48.608;8.838;2023-02-12T10:49:03;6.80;72.30
32293;DHT22;43233;48.608;8.838;2023-02-12T10:57:12;6.90;71.70
32293;DHT22;43233;48.608;8.838;2023-02-12T10:59:40;6.80;71.70
32293;DHT22;43233;48.608;8.838;2023-02-12T11:02:30;6.80;72.30
32293;DHT22;43233;48.608;8.838;2023-02-12T11:04:57;6.90;72.40
32293;DHT22;43233;48.608;8.838;2023-02-12T11:07:24;6.90;71.70
32293;DHT22;43233;48.608;8.838;2023-02-12T11:09:52;6.90;72.10
32293;DHT22;43233;48.608;8.838;2023-02-12T11:12:33;6.90;72.10
32293;DHT22;43233;48.608;8.838;2023-02-12T11:15:13;7.00;72.10
32293;DHT22;43233;48.608;8.838;2023-02-12T11:17:42;6.90;71.40
32293;DHT22;43233;48.608;8.838;2023-02-12T11:25:16;6.90;72.60
32293;DHT22;43233;48.608;8.838;2023-02-12T11:27:42;6.90;72.30
32293;DHT22;43233;48.608;8.838;2023-02-12T11:30:19;6.90;72.70
32293;DHT22;43233;48.608;8.838;2023-02-12T11:32:46;6.90;72.20
32293;DHT22;43233;48.608;8.838;2023-02-12T11:37:41;7.10;71.70
32293;DHT22;43233;48.608;8.838;2023-02-12T11:40:31;7.20;72.20
32293;DHT22;43233;48.608;8.838;2023-02-12T11:43:01;7.20;70.40
32293;DHT22;43233;48.608;8.838;2023-02-12T11:45:43;7.30;70.60
32293;DHT22;43233;48.608;8.838;2023-02-12T11:48:30;7.30;70.80
32293;DHT22;43233;48.608;8.838;2023-02-12T11:50:59;7.20;70.40
32293;DHT22;43233;48.608;8.838;2023-02-12T11:53:30;7.30;71.10
32293;DHT22;43233;48.608;8.838;2023-02-12T11:55:59;7.40;70.80
32293;DHT22;43233;48.608;8.838;2023-02-12T11:58:27;7.40;70.80
32293;DHT22;43233;48.608;8.838;2023-02-12T12:06:33;7.40;69.90
32293;DHT22;43233;48.608;8.838;2023-02-12T12:09:05;7.50;70.00
32293;DHT22;43233;48.608;8.838;2023-02-12T12:11:44;7.50;69.90
32293;DHT22;43233;48.608;8.838;2023-02-12T12:14:28;7.50;70.10
32293;DHT22;43233;48.608;8.838;2023-02-12T12:20:09;7.90;69.20
32293;DHT22;43233;48.608;8.838;2023-02-12T12:22:53;8.00;67.90
32293;DHT22;43233;48.608;8.838;2023-02-12T12:25:26;8.20;68.10
32293;DHT22;43233;48.608;8.838;2023-02-12T12:28:00;8.40;66.20
32293;DHT22;43233;48.608;8.838;2023-02-12T12:33:29;8.70;65.70
32293;DHT22;43233;48.608;8.838;2023-02-12T12:41:26;9.00;64.00
32293;DHT22;43233;48.608;8.838;2023-02-12T12:55:10;10.60;57.00
32293;DHT22;43233;48.608;8.838;2023-02-12T12:57:55;10.70;55.60
32293;DHT22;43233;48.608;8.838;2023-02-12T13:03:27;11.40;58.10
32293;DHT22;43233;48.608;8.838;2023-02-12T13:08:50;12.80;52.00
32293;DHT22;43233;48.608;8.838;2023-02-12T13:11:25;13.40;48.60
32293;DHT22;43233;48.608;8.838;2023-02-12T13:14:26;14.20;49.10
32293;DHT22;43233;48.608;8.838;2023-02-12T13:25:12;14.30;44.80
32293;DHT22;43233;48.608;8.838;2023-02-12T13:27:39;14.60;45.00
32293;DHT22;43233;48.608;8.838;2023-02-12T13:30:26;15.30;43.60
32293;DHT22;43233;48.608;8.838;2023-02-12T13:35:45;16.70;39.50
32293;DHT22;43233;48.608;8.838;2023-02-12T13:38:20;17.20;39.30
32293;DHT22;43233;48.608;8.838;2023-02-12T13:40:47;17.90;38.90
32293;DHT22;43233;48.608;8.838;2023-02-12T13:49:33;17.30;37.10
32293;DHT22;43233;48.608;8.838;2023-02-12T13:52:48;17.10;36.90
32293;DHT22;43233;48.608;8.838;2023-02-12T13:57:38;15.90;39.10
32293;DHT22;43233;48.608;8.838;2023-02-12T14:00:05;16.10;40.00
32293;DHT22;43233;48.608;8.838;2023-02-12T14:02:51;16.60;40.00
32293;DHT22;43233;48.608;8.838;2023-02-12T14:05:29;17.50;37.00
32293;DHT22;43233;48.608;8.838;2023-02-12T14:08:01;18.10;36.10
32293;DHT22;43233;48.608;8.838;2023-02-12T14:10:33;18.80;34.90
32293;DHT22;43233;48.608;8.838;2023-02-12T14:13:22;19.40;32.80
32293;DHT22;43233;48.608;8.838;2023-02-12T14:15:53;20.00;32.00
32293;DHT22;43233;48.608;8.838;2023-02-12T14:20:47;21.10;29.90
32293;DHT22;43233;48.608;8.838;2023-02-12T14:23:33;21.10;29.80
32293;DHT22;43233;48.608;8.838;2023-02-12T14:26:09;21.40;29.30
32293;DHT22;43233;48.608;8.838;2023-02-12T14:36:45;22.20;27.70
32293;DHT22;43233;48.608;8.838;2023-02-12T14:41:53;22.20;27.70
32293;DHT22;43233;48.608;8.838;2023-02-12T14:49:49;22.60;26.50
32293;DHT22;43233;48.608;8.838;2023-02-12T14:52:21;22.70;26.20
32293;DHT22;43233;48.608;8.838;2023-02-12T14:54:50;22.90;26.00
32293;DHT22;43233;48.608;8.838;2023-02-12T14:59:44;22.70;25.60
32293;DHT22;43233;48.608;8.838;2023-02-12T15:02:22;22.50;26.40
32293;DHT22;43233;48.608;8.838;2023-02-12T15:04:49;22.50;26.60
32293;DHT22;43233;48.608;8.838;2023-02-12T15:07:22;22.60;26.20
32293;DHT22;43233;48.608;8.838;2023-02-12T15:09:58;22.60;26.60
32293;DHT22;43233;48.608;8.838;2023-02-12T15:12:32;22.70;26.20
32293;DHT22;43233;48.608;8.838;2023-02-12T15:17:39;22.80;25.50
32293;DHT22;43233;48.608;8.838;2023-02-12T15:22:42;22.70;25.90
32293;DHT22;43233;48.608;8.838;2023-02-12T15:25:14;22.70;25.60
32293;DHT22;43233;48.608;8.838;2023-02-12T15:27:46;22.60;25.90
32293;DHT22;43233;48.608;8.838;2023-02-12T15:30:21;22.40;26.00
32293;DHT22;43233;48.608;8.838;2023-02-12T15:32:48;22.20;26.10
32293;DHT22;43233;48.608;8.838;2023-02-12T15:35:29;22.00;26.30
32293;DHT22;43233;48.608;8.838;2023-02-12T15:37:56;21.80;26.50
32293;DHT22;43233;48.608;8.838;2023-02-12T15:40:24;21.60;26.50
32293;DHT22;43233;48.608;8.838;2023-02-12T15:42:59;21.40;26.90
32293;DHT22;43233;48.608;8.838;2023-02-12T15:45:26;21.20;26.90
32293;DHT22;43233;48.608;8.838;2023-02-12T15:48:12;20.80;27.30
32293;DHT22;43233;48.608;8.838;2023-02-12T15:51:01;20.20;28.00
32293;DHT22;43233;48.608;8.838;2023-02-12T15:53:29;19.30;29.30
32293;DHT22;43233;48.608;8.838;2023-02-12T15:55:56;18.40;30.40
32293;DHT22;43233;48.608;8.838;2023-02-12T15:58:28;17.50;31.80
32293;DHT22;43233;48.608;8.838;2023-02-12T16:00:58;16.80;33.40
32293;DHT22;43233;48.608;8.838;2023-02-12T16:03:36;16.00;34.80
32293;DHT22;43233;48.608;8.838;2023-02-12T16:06:05;15.30;36.20
32293;DHT22;43233;48.608;8.838;2023-02-12T16:08:35;14.80;37.60
32293;DHT22;43233;48.608;8.838;2023-02-12T16:11:02;14.20;38.40
32293;DHT22;43233;48.608;8.838;2023-02-12T16:14:00;13.80;39.10
32293;DHT22;43233;48.608;8.838;2023-02-12T16:16:26;13.40;40.90
32293;DHT22;43233;48.608;8.838;2023-02-12T16:19:16;12.90;41.50
32293;DHT22;43233;48.608;8.838;2023-02-12T16:21:42;12.60;42.90
32293;DHT22;43233;48.608;8.838;2023-02-12T16:24:24;12.30;44.00
32293;DHT22;43233;48.608;8.838;2023-02-12T16:26:51;12.00;44.50
32293;DHT22;43233;48.608;8.838;2023-02-12T16:29:17;11.80;45.10
32293;DHT22;43233;48.608;8.838;2023-02-12T16:31:58;11.60;46.20
32293;DHT22;43233;48.608;8.838;2023-02-12T16:34:30;11.40;46.30
32293;DHT22;43233;48.608;8.838;2023-02-12T16:36:56;11.20;47.10
32293;DHT22;43233;48.608;8.838;2023-02-12T16:42:24;10.80;48.20
32293;DHT22;43233;48.608;8.838;2023-02-12T16:44:54;10.60;48.80
32293;DHT22;43233;48.608;8.838;2023-02-12T16:47:22;10.40;49.50
32293;DHT22;43233;48.608;8.838;2023-02-12T16:50:00;10.20;50.30
32293;DHT22;43233;48.608;8.838;2023-02-12T16:52:39;10.00;50.80
32293;DHT22;43233;48.608;8.838;2023-02-12T16:55:14;9.80;51.30
32293;DHT22;43233;48.608;8.838;2023-02-12T16:57:40;9.60;51.80
32293;DHT22;43233;48.608;8.838;2023-02-12T17:00:07;9.50;52.20
32293;DHT22;43233;48.608;8.838;2023-02-12T17:02:33;9.40;52.50
32293;DHT22;43233;48.608;8.838;2023-02-12T17:05:01;9.30;53.00
32293;DHT22;43233;48.608;8.838;2023-02-12T17:07:30;9.20;53.50
32293;DHT22;43233;48.608;8.838;2023-02-12T17:09:56;9.10;53.80
32293;DHT22;43233;48.608;8.838;2023-02-12T17:12:22;9.00;54.30
32293;DHT22;43233;48.608;8.838;2023-02-12T17:14:48;8.90;54.70
32293;DHT22;43233;48.608;8.838;2023-02-12T17:17:14;8.80;55.00
32293;DHT22;43233;48.608;8.838;2023-02-12T17:19:39;8.60;55.30
32293;DHT22;43233;48.608;8.838;2023-02-12T17:22:07;8.50;55.80
32293;DHT22;43233;48.608;8.838;2023-02-12T17:24:34;8.40;56.30
32293;DHT22;43233;48.608;8.838;2023-02-12T17:27:00;8.30;56.80
32293;DHT22;43233;48.608;8.838;2023-02-12T17:29:27;8.20;57.20
32293;DHT22;43233;48.608;8.838;2023-02-12T17:31:53;8.10;58.70
32293;DHT22;43233;48.608;8.838;2023-02-12T17:34:21;8.00;58.80
32293;DHT22;43233;48.608;8.838;2023-02-12T17:36:47;7.90;59.20
32293;DHT22;43233;48.608;8.838;2023-02-12T17:39:15;7.80;59.60
32293;DHT22;43233;48.608;8.838;2023-02-12T17:41:41;7.70;59.80
32293;DHT22;43233;48.608;8.838;2023-02-12T17:44:08;7.60;60.50
32293;DHT22;43233;48.608;8.838;2023-02-12T17:46:34;7.60;60.70
32293;DHT22;43233;48.608;8.838;2023-02-12T17:49:00;7.50;61.20
32293;DHT22;43233;48.608;8.838;2023-02-12T17:51:25;7.40;61.80
32293;DHT22;43233;48.608;8.838;2023-02-12T17:53:51;7.30;62.20
32293;DHT22;43233;48.608;8.838;2023-02-12T17:56:19;7.30;62.60
32293;DHT22;43233;48.608;8.838;2023-02-12T17:58:46;7.20;62.90
32293;DHT22;43233;48.608;8.838;2023-02-12T18:01:15;7.20;63.30
32293;DHT22;43233;48.608;8.838;2023-02-12T18:03:41;7.10;63.80
32293;DHT22;43233;48.608;8.838;2023-02-12T18:06:07;7.00;64.10
32293;DHT22;43233;48.608;8.838;2023-02-12T18:08:33;7.00;64.30
32293;DHT22;43233;48.608;8.838;2023-02-12T18:11:04;6.90;64.50
32293;DHT22;43233;48.608;8.838;2023-02-12T18:13:30;6.80;64.70
32293;DHT22;43233;48.608;8.838;2023-02-12T18:15:56;6.80;64.90
32293;DHT22;43233;48.608;8.838;2023-02-12T18:18:21;6.70;65.40
32293;DHT22;43233;48.608;8.838;2023-02-12T18:20:47;6.70;65.50
32293;DHT22;43233;48.608;8.838;2023-02-12T18:23:13;6.70;65.90
32293;DHT22;43233;48.608;8.838;2023-02-12T18:25:42;6.60;65.80
32293;DHT22;43233;48.608;8.838;2023-02-12T18:28:09;6.60;65.80
32293;DHT22;43233;48.608;8.838;2023-02-12T18:30:36;6.50;66.00
32293;DHT22;43233;48.608;8.838;2023-02-12T18:33:04;6.40;66.50
32293;DHT22;43233;48.608;8.838;2023-02-12T18:35:30;6.40;66.50
32293;DHT22;43233;48.608;8.838;2023-02-12T18:37:55;6.30;66.70
32293;DHT22;43233;48.608;8.838;2023-02-12T18:40:21;6.30;66.70
32293;DHT22;43233;48.608;8.838;2023-02-12T18:42:47;6.20;66.90
32293;DHT22;43233;48.608;8.838;2023-02-12T18:45:12;6.20;66.00
32293;DHT22;43233;48.608;8.838;2023-02-12T18:47:38;6.10;66.10